sensor_id;sensor_type;location;lat;lon;timestamp;P1;durP1;ratioP1;P2;durP2;ratioP2
44048;SDS011;29717;47.028;15.470;2023-07-20T00:02:17;5.82;;;4.38;;
44048;SDS011;29717;47.028;15.470;2023-07-20T00:04:44;5.45;;;4.90;;
44048;SDS011;29717;47.028;15.470;2023-07-20T00:07:10;6.65;;;4.95;;
44048;SDS011;29717;47.028;15.470;2023-07-20T00:09:37;6.22;;;5.35;;
44048;SDS011;29717;47.028;15.470;2023-07-20T00:12:04;5.78;;;5.00;;
44048;SDS011;29717;47.028;15.470;2023-07-20T00:14:32;6.47;;;5.10;;
44048;SDS011;29717;47.028;15.470;2023-07-20T00:16:59;6.63;;;5.00;;
44048;SDS011;29717;47.028;15.470;2023-07-20T00:19:26;6.97;;;4.60;;
44048;SDS011;29717;47.028;15.470;2023-07-20T00:21:53;8.32;;;5.28;;
44048;SDS011;29717;47.028;15.470;2023-07-20T00:24:20;9.13;;;5.10;;
44048;SDS011;29717;47.028;15.470;2023-07-20T00:26:47;6.38;;;5.10;;
44048;SDS011;29717;47.028;15.470;2023-07-20T00:29:13;8.27;;;5.70;;
44048;SDS011;29717;47.028;15.470;2023-07-20T00:31:41;10.35;;;5.25;;
44048;SDS011;29717;47.028;15.470;2023-07-20T00:34:08;13.02;;;5.70;;
44048;SDS011;29717;47.028;15.470;2023-07-20T00:36:35;6.95;;;5.97;;
44048;SDS011;29717;47.028;15.470;2023-07-20T00:39:02;8.98;;;6.05;;
44048;SDS011;29717;47.028;15.470;2023-07-20T00:41:28;8.95;;;6.03;;
44048;SDS011;29717;47.028;15.470;2023-07-20T00:43:57;8.10;;;5.60;;
44048;SDS011;29717;47.028;15.470;2023-07-20T00:46:23;9.95;;;5.80;;
44048;SDS011;29717;47.028;15.470;2023-07-20T00:48:52;7.25;;;5.25;;
44048;SDS011;29717;47.028;15.470;2023-07-20T00:51:20;7.75;;;5.78;;
44048;SDS011;29717;47.028;15.470;2023-07-20T00:53:47;6.25;;;5.55;;
44048;SDS011;29717;47.028;15.470;2023-07-20T00:56:14;7.80;;;5.70;;
44048;SDS011;29717;47.028;15.470;2023-07-20T00:58:41;9.95;;;5.60;;
44048;SDS011;29717;47.028;15.470;2023-07-20T01:01:07;8.07;;;5.97;;
44048;SDS011;29717;47.028;15.470;2023-07-20T01:03:34;9.75;;;5.88;;
44048;SDS011;29717;47.028;15.470;2023-07-20T01:06:06;7.90;;;5.57;;
44048;SDS011;29717;47.028;15.470;2023-07-20T01:08:37;7.28;;;6.07;;
44048;SDS011;29717;47.028;15.470;2023-07-20T01:11:06;9.35;;;6.22;;
44048;SDS011;29717;47.028;15.470;2023-07-20T01:13:34;9.65;;;5.35;;
44048;SDS011;29717;47.028;15.470;2023-07-20T01:16:02;7.68;;;5.82;;
44048;SDS011;29717;47.028;15.470;2023-07-20T01:18:29;9.13;;;5.38;;
44048;SDS011;29717;47.028;15.470;2023-07-20T01:20:57;8.13;;;5.45;;
44048;SDS011;29717;47.028;15.470;2023-07-20T01:23:31;6.30;;;5.22;;
44048;SDS011;29717;47.028;15.470;2023-07-20T01:26:19;11.27;;;5.53;;
44048;SDS011;29717;47.028;15.470;2023-07-20T01:28:55;6.90;;;5.57;;
44048;SDS011;29717;47.028;15.470;2023-07-20T01:31:26;9.95;;;6.28;;
44048;SDS011;29717;47.028;15.470;2023-07-20T01:33:55;9.40;;;5.90;;
44048;SDS011;29717;47.028;15.470;2023-07-20T01:36:22;12.35;;;5.43;;
44048;SDS011;29717;47.028;15.470;2023-07-20T01:38:51;7.85;;;5.68;;
44048;SDS011;29717;47.028;15.470;2023-07-20T01:41:18;6.82;;;5.65;;
44048;SDS011;29717;47.028;15.470;2023-07-20T01:43:44;8.20;;;5.65;;
44048;SDS011;29717;47.028;15.470;2023-07-20T01:46:11;10.18;;;6.05;;
44048;SDS011;29717;47.028;15.470;2023-07-20T01:48:39;6.60;;;5.53;;
44048;SDS011;29717;47.028;15.470;2023-07-20T01:51:06;8.25;;;5.03;;
44048;SDS011;29717;47.028;15.470;2023-07-20T01:53:32;6.85;;;5.15;;
44048;SDS011;29717;47.028;15.470;2023-07-20T01:55:59;10.35;;;5.45;;
44048;SDS011;29717;47.028;15.470;2023-07-20T01:58:26;6.30;;;4.90;;
44048;SDS011;29717;47.028;15.470;2023-07-20T02:00:52;5.85;;;5.25;;
44048;SDS011;29717;47.028;15.470;2023-07-20T02:03:19;7.60;;;5.07;;
44048;SDS011;29717;47.028;15.470;2023-07-20T02:05:50;11.52;;;5.13;;
44048;SDS011;29717;47.028;15.470;2023-07-20T02:08:17;8.07;;;5.40;;
44048;SDS011;29717;47.028;15.470;2023-07-20T02:10:45;5.53;;;4.93;;
44048;SDS011;29717;47.028;15.470;2023-07-20T02:13:11;8.82;;;5.97;;
44048;SDS011;29717;47.028;15.470;2023-07-20T02:15:38;7.65;;;6.18;;
44048;SDS011;29717;47.028;15.470;2023-07-20T02:18:05;7.28;;;5.25;;
44048;SDS011;29717;47.028;15.470;2023-07-20T02:20:32;11.38;;;5.70;;
44048;SDS011;29717;47.028;15.470;2023-07-20T02:23:00;9.57;;;5.88;;
44048;SDS011;29717;47.028;15.470;2023-07-20T02:25:27;9.23;;;5.60;;
44048;SDS011;29717;47.028;15.470;2023-07-20T02:27:54;7.90;;;5.63;;
44048;SDS011;29717;47.028;15.470;2023-07-20T02:30:20;7.22;;;5.47;;
44048;SDS011;29717;47.028;15.470;2023-07-20T02:32:47;8.50;;;5.20;;
44048;SDS011;29717;47.028;15.470;2023-07-20T02:35:14;7.20;;;5.75;;
44048;SDS011;29717;47.028;15.470;2023-07-20T02:37:41;7.40;;;5.35;;
44048;SDS011;29717;47.028;15.470;2023-07-20T02:40:10;8.52;;;5.65;;
44048;SDS011;29717;47.028;15.470;2023-07-20T02:42:36;7.53;;;5.63;;
44048;SDS011;29717;47.028;15.470;2023-07-20T02:45:04;9.48;;;5.40;;
44048;SDS011;29717;47.028;15.470;2023-07-20T02:47:30;7.65;;;5.65;;
44048;SDS011;29717;47.028;15.470;2023-07-20T02:49:58;8.73;;;5.43;;
44048;SDS011;29717;47.028;15.470;2023-07-20T02:52:25;8.93;;;5.57;;
44048;SDS011;29717;47.028;15.470;2023-07-20T02:54:51;8.77;;;5.60;;
44048;SDS011;29717;47.028;15.470;2023-07-20T02:57:20;11.43;;;5.30;;
44048;SDS011;29717;47.028;15.470;2023-07-20T02:59:46;8.23;;;5.40;;
44048;SDS011;29717;47.028;15.470;2023-07-20T03:02:13;6.15;;;5.40;;
44048;SDS011;29717;47.028;15.470;2023-07-20T03:04:40;6.32;;;5.68;;
44048;SDS011;29717;47.028;15.470;2023-07-20T03:07:06;9.02;;;5.03;;
44048;SDS011;29717;47.028;15.470;2023-07-20T03:09:33;6.25;;;5.05;;
44048;SDS011;29717;47.028;15.470;2023-07-20T03:12:00;6.38;;;5.20;;
44048;SDS011;29717;47.028;15.470;2023-07-20T03:14:31;6.97;;;5.53;;
44048;SDS011;29717;47.028;15.470;2023-07-20T03:16:58;11.18;;;5.55;;
44048;SDS011;29717;47.028;15.470;2023-07-20T03:19:25;5.47;;;4.82;;
44048;SDS011;29717;47.028;15.470;2023-07-20T03:21:53;6.38;;;5.05;;
44048;SDS011;29717;47.028;15.470;2023-07-20T03:24:19;6.15;;;4.82;;
44048;SDS011;29717;47.028;15.470;2023-07-20T03:26:46;8.35;;;4.75;;
44048;SDS011;29717;47.028;15.470;2023-07-20T03:29:13;6.75;;;5.13;;
44048;SDS011;29717;47.028;15.470;2023-07-20T03:31:42;6.45;;;4.80;;
44048;SDS011;29717;47.028;15.470;2023-07-20T03:34:09;6.53;;;4.72;;
44048;SDS011;29717;47.028;15.470;2023-07-20T03:36:36;8.15;;;4.65;;
44048;SDS011;29717;47.028;15.470;2023-07-20T03:39:02;9.02;;;4.50;;
44048;SDS011;29717;47.028;15.470;2023-07-20T03:41:29;6.25;;;4.63;;
44048;SDS011;29717;47.028;15.470;2023-07-20T03:43:56;7.22;;;4.85;;
44048;SDS011;29717;47.028;15.470;2023-07-20T03:46:22;5.53;;;4.60;;
44048;SDS011;29717;47.028;15.470;2023-07-20T03:48:50;7.18;;;5.10;;
44048;SDS011;29717;47.028;15.470;2023-07-20T03:51:17;6.57;;;4.68;;
44048;SDS011;29717;47.028;15.470;2023-07-20T03:53:44;11.45;;;4.90;;
44048;SDS011;29717;47.028;15.470;2023-07-20T03:56:10;8.70;;;4.65;;
44048;SDS011;29717;47.028;15.470;2023-07-20T03:58:37;7.35;;;5.22;;
44048;SDS011;29717;47.028;15.470;2023-07-20T04:01:04;6.82;;;5.18;;
44048;SDS011;29717;47.028;15.470;2023-07-20T04:03:30;8.27;;;5.50;;
44048;SDS011;29717;47.028;15.470;2023-07-20T04:05:59;9.00;;;4.88;;
44048;SDS011;29717;47.028;15.470;2023-07-20T04:08:25;4.93;;;4.53;;
44048;SDS011;29717;47.028;15.470;2023-07-20T04:10:52;6.95;;;5.28;;
44048;SDS011;29717;47.028;15.470;2023-07-20T04:13:19;4.43;;;4.03;;
44048;SDS011;29717;47.028;15.470;2023-07-20T04:15:45;6.68;;;4.78;;
44048;SDS011;29717;47.028;15.470;2023-07-20T04:18:12;5.28;;;4.60;;
44048;SDS011;29717;47.028;15.470;2023-07-20T04:20:39;9.95;;;4.65;;
44048;SDS011;29717;47.028;15.470;2023-07-20T04:23:07;6.93;;;4.13;;
44048;SDS011;29717;47.028;15.470;2023-07-20T04:25:34;5.50;;;4.97;;
44048;SDS011;29717;47.028;15.470;2023-07-20T04:28:04;7.25;;;5.13;;
44048;SDS011;29717;47.028;15.470;2023-07-20T04:30:33;7.65;;;4.85;;
44048;SDS011;29717;47.028;15.470;2023-07-20T04:33:00;10.27;;;5.05;;
44048;SDS011;29717;47.028;15.470;2023-07-20T04:38:16;5.47;;;4.97;;
44048;SDS011;29717;47.028;15.470;2023-07-20T04:40:44;7.88;;;5.43;;
44048;SDS011;29717;47.028;15.470;2023-07-20T04:43:10;11.73;;;5.43;;
44048;SDS011;29717;47.028;15.470;2023-07-20T04:45:37;6.32;;;4.68;;
44048;SDS011;29717;47.028;15.470;2023-07-20T04:48:06;4.78;;;4.10;;
44048;SDS011;29717;47.028;15.470;2023-07-20T04:50:33;5.50;;;3.88;;
44048;SDS011;29717;47.028;15.470;2023-07-20T04:53:00;6.07;;;4.32;;
44048;SDS011;29717;47.028;15.470;2023-07-20T04:55:28;6.35;;;4.45;;
44048;SDS011;29717;47.028;15.470;2023-07-20T04:57:55;5.95;;;4.03;;
44048;SDS011;29717;47.028;15.470;2023-07-20T05:00:22;7.13;;;4.20;;
44048;SDS011;29717;47.028;15.470;2023-07-20T05:02:48;5.30;;;4.40;;
44048;SDS011;29717;47.028;15.470;2023-07-20T05:05:15;8.27;;;4.65;;
44048;SDS011;29717;47.028;15.470;2023-07-20T05:07:42;6.85;;;4.32;;
44048;SDS011;29717;47.028;15.470;2023-07-20T05:10:09;7.38;;;4.43;;
44048;SDS011;29717;47.028;15.470;2023-07-20T05:12:37;6.68;;;4.18;;
44048;SDS011;29717;47.028;15.470;2023-07-20T05:15:04;10.40;;;4.53;;
44048;SDS011;29717;47.028;15.470;2023-07-20T05:17:30;9.38;;;4.32;;
44048;SDS011;29717;47.028;15.470;2023-07-20T05:19:57;8.55;;;4.57;;
44048;SDS011;29717;47.028;15.470;2023-07-20T05:22:24;8.02;;;3.97;;
44048;SDS011;29717;47.028;15.470;2023-07-20T05:24:52;10.35;;;5.35;;
44048;SDS011;29717;47.028;15.470;2023-07-20T05:27:19;6.95;;;5.05;;
44048;SDS011;29717;47.028;15.470;2023-07-20T05:29:48;6.30;;;5.28;;
44048;SDS011;29717;47.028;15.470;2023-07-20T05:32:14;9.75;;;5.80;;
44048;SDS011;29717;47.028;15.470;2023-07-20T05:34:41;10.73;;;5.72;;
44048;SDS011;29717;47.028;15.470;2023-07-20T05:37:08;9.50;;;5.90;;
44048;SDS011;29717;47.028;15.470;2023-07-20T05:39:37;8.60;;;6.30;;
44048;SDS011;29717;47.028;15.470;2023-07-20T05:42:04;8.50;;;5.97;;
44048;SDS011;29717;47.028;15.470;2023-07-20T05:44:31;8.18;;;6.13;;
44048;SDS011;29717;47.028;15.470;2023-07-20T05:46:59;7.03;;;5.68;;
44048;SDS011;29717;47.028;15.470;2023-07-20T05:49:27;7.43;;;5.38;;
44048;SDS011;29717;47.028;15.470;2023-07-20T05:51:54;7.78;;;5.93;;
44048;SDS011;29717;47.028;15.470;2023-07-20T05:54:23;6.72;;;5.30;;
44048;SDS011;29717;47.028;15.470;2023-07-20T05:56:50;8.52;;;5.38;;
44048;SDS011;29717;47.028;15.470;2023-07-20T05:59:16;9.80;;;5.20;;
44048;SDS011;29717;47.028;15.470;2023-07-20T06:01:45;8.95;;;4.38;;
44048;SDS011;29717;47.028;15.470;2023-07-20T06:04:15;6.97;;;4.93;;
44048;SDS011;29717;47.028;15.470;2023-07-20T06:06:41;6.10;;;4.40;;
44048;SDS011;29717;47.028;15.470;2023-07-20T06:09:08;6.43;;;4.90;;
44048;SDS011;29717;47.028;15.470;2023-07-20T06:11:37;6.15;;;4.82;;
44048;SDS011;29717;47.028;15.470;2023-07-20T06:14:04;6.05;;;4.43;;
44048;SDS011;29717;47.028;15.470;2023-07-20T06:16:30;7.90;;;4.45;;
44048;SDS011;29717;47.028;15.470;2023-07-20T06:18:57;7.55;;;4.78;;
44048;SDS011;29717;47.028;15.470;2023-07-20T06:21:25;6.22;;;4.45;;
44048;SDS011;29717;47.028;15.470;2023-07-20T06:23:52;8.38;;;4.30;;
44048;SDS011;29717;47.028;15.470;2023-07-20T06:26:18;7.45;;;4.55;;
44048;SDS011;29717;47.028;15.470;2023-07-20T06:28:46;9.43;;;5.55;;
44048;SDS011;29717;47.028;15.470;2023-07-20T06:31:13;11.15;;;6.15;;
44048;SDS011;29717;47.028;15.470;2023-07-20T06:33:40;9.57;;;5.38;;
44048;SDS011;29717;47.028;15.470;2023-07-20T06:36:06;7.65;;;4.57;;
44048;SDS011;29717;47.028;15.470;2023-07-20T06:38:34;11.80;;;4.55;;
44048;SDS011;29717;47.028;15.470;2023-07-20T06:41:01;9.00;;;4.25;;
44048;SDS011;29717;47.028;15.470;2023-07-20T06:43:27;7.50;;;4.47;;
44048;SDS011;29717;47.028;15.470;2023-07-20T06:45:54;8.43;;;4.47;;
44048;SDS011;29717;47.028;15.470;2023-07-20T06:48:21;9.75;;;4.75;;
44048;SDS011;29717;47.028;15.470;2023-07-20T06:50:48;8.27;;;5.18;;
44048;SDS011;29717;47.028;15.470;2023-07-20T06:53:14;10.23;;;4.47;;
44048;SDS011;29717;47.028;15.470;2023-07-20T06:55:44;7.30;;;4.40;;
44048;SDS011;29717;47.028;15.470;2023-07-20T06:58:11;7.65;;;4.68;;
44048;SDS011;29717;47.028;15.470;2023-07-20T07:00:38;6.35;;;4.18;;
44048;SDS011;29717;47.028;15.470;2023-07-20T07:03:04;7.07;;;3.63;;
44048;SDS011;29717;47.028;15.470;2023-07-20T07:05:31;7.15;;;4.07;;
44048;SDS011;29717;47.028;15.470;2023-07-20T07:07:58;8.40;;;4.35;;
44048;SDS011;29717;47.028;15.470;2023-07-20T07:10:24;6.43;;;4.70;;
44048;SDS011;29717;47.028;15.470;2023-07-20T07:12:52;6.30;;;3.60;;
44048;SDS011;29717;47.028;15.470;2023-07-20T07:15:19;6.78;;;3.72;;
44048;SDS011;29717;47.028;15.470;2023-07-20T07:17:46;4.80;;;4.00;;
44048;SDS011;29717;47.028;15.470;2023-07-20T07:20:12;6.68;;;3.60;;
44048;SDS011;29717;47.028;15.470;2023-07-20T07:22:39;5.43;;;3.60;;
44048;SDS011;29717;47.028;15.470;2023-07-20T07:25:09;6.85;;;3.33;;
44048;SDS011;29717;47.028;15.470;2023-07-20T07:27:36;5.80;;;3.95;;
44048;SDS011;29717;47.028;15.470;2023-07-20T07:30:05;9.02;;;4.32;;
44048;SDS011;29717;47.028;15.470;2023-07-20T07:32:32;6.78;;;3.72;;
44048;SDS011;29717;47.028;15.470;2023-07-20T07:34:58;6.45;;;3.80;;
44048;SDS011;29717;47.028;15.470;2023-07-20T07:37:25;8.45;;;4.22;;
44048;SDS011;29717;47.028;15.470;2023-07-20T07:39:52;5.45;;;3.67;;
44048;SDS011;29717;47.028;15.470;2023-07-20T07:42:19;5.60;;;3.60;;
44048;SDS011;29717;47.028;15.470;2023-07-20T07:44:45;7.53;;;4.22;;
44048;SDS011;29717;47.028;15.470;2023-07-20T07:47:13;5.22;;;3.90;;
44048;SDS011;29717;47.028;15.470;2023-07-20T07:49:40;5.32;;;4.07;;
44048;SDS011;29717;47.028;15.470;2023-07-20T07:52:07;5.57;;;3.72;;
44048;SDS011;29717;47.028;15.470;2023-07-20T07:54:33;7.20;;;3.90;;
44048;SDS011;29717;47.028;15.470;2023-07-20T07:57:00;7.75;;;4.00;;
44048;SDS011;29717;47.028;15.470;2023-07-20T07:59:27;8.40;;;3.60;;
44048;SDS011;29717;47.028;15.470;2023-07-20T08:01:55;6.32;;;3.50;;
44048;SDS011;29717;47.028;15.470;2023-07-20T08:04:23;7.85;;;3.72;;
44048;SDS011;29717;47.028;15.470;2023-07-20T08:06:50;8.15;;;3.38;;
44048;SDS011;29717;47.028;15.470;2023-07-20T08:09:16;6.10;;;3.47;;
44048;SDS011;29717;47.028;15.470;2023-07-20T08:11:43;9.10;;;3.63;;
44048;SDS011;29717;47.028;15.470;2023-07-20T08:14:10;6.82;;;3.63;;
44048;SDS011;29717;47.028;15.470;2023-07-20T08:16:36;6.25;;;4.20;;
44048;SDS011;29717;47.028;15.470;2023-07-20T08:19:03;4.97;;;3.58;;
44048;SDS011;29717;47.028;15.470;2023-07-20T08:21:31;7.35;;;3.63;;
44048;SDS011;29717;47.028;15.470;2023-07-20T08:23:58;8.15;;;3.72;;
44048;SDS011;29717;47.028;15.470;2023-07-20T08:26:24;6.20;;;4.38;;
44048;SDS011;29717;47.028;15.470;2023-07-20T08:28:51;6.90;;;4.05;;
44048;SDS011;29717;47.028;15.470;2023-07-20T08:31:18;6.55;;;3.60;;
44048;SDS011;29717;47.028;15.470;2023-07-20T08:33:45;5.15;;;3.60;;
44048;SDS011;29717;47.028;15.470;2023-07-20T08:36:12;5.47;;;3.88;;
44048;SDS011;29717;47.028;15.470;2023-07-20T08:38:40;5.28;;;3.72;;
44048;SDS011;29717;47.028;15.470;2023-07-20T08:41:08;8.13;;;3.78;;
44048;SDS011;29717;47.028;15.470;2023-07-20T08:43:35;8.57;;;4.35;;
44048;SDS011;29717;47.028;15.470;2023-07-20T08:46:03;4.60;;;3.25;;
44048;SDS011;29717;47.028;15.470;2023-07-20T08:48:31;6.15;;;3.67;;
44048;SDS011;29717;47.028;15.470;2023-07-20T08:50:57;5.85;;;3.30;;
44048;SDS011;29717;47.028;15.470;2023-07-20T08:53:25;5.15;;;3.38;;
44048;SDS011;29717;47.028;15.470;2023-07-20T08:55:53;4.55;;;3.40;;
44048;SDS011;29717;47.028;15.470;2023-07-20T08:58:20;5.43;;;3.40;;
44048;SDS011;29717;47.028;15.470;2023-07-20T09:00:46;7.53;;;3.60;;
44048;SDS011;29717;47.028;15.470;2023-07-20T09:03:15;4.60;;;2.90;;
44048;SDS011;29717;47.028;15.470;2023-07-20T09:05:42;4.45;;;2.75;;
44048;SDS011;29717;47.028;15.470;2023-07-20T09:08:09;5.40;;;3.10;;
44048;SDS011;29717;47.028;15.470;2023-07-20T09:10:35;4.28;;;3.20;;
44048;SDS011;29717;47.028;15.470;2023-07-20T09:13:03;2.65;;;2.42;;
44048;SDS011;29717;47.028;15.470;2023-07-20T09:15:30;3.28;;;2.85;;
44048;SDS011;29717;47.028;15.470;2023-07-20T09:17:58;6.15;;;2.60;;
44048;SDS011;29717;47.028;15.470;2023-07-20T09:20:27;3.92;;;2.83;;
44048;SDS011;29717;47.028;15.470;2023-07-20T09:22:57;3.58;;;2.53;;
44048;SDS011;29717;47.028;15.470;2023-07-20T09:25:23;3.42;;;2.50;;
44048;SDS011;29717;47.028;15.470;2023-07-20T09:27:50;4.85;;;3.35;;
44048;SDS011;29717;47.028;15.470;2023-07-20T09:30:18;3.22;;;2.80;;
44048;SDS011;29717;47.028;15.470;2023-07-20T09:32:45;3.38;;;2.63;;
44048;SDS011;29717;47.028;15.470;2023-07-20T09:35:13;3.38;;;2.85;;
44048;SDS011;29717;47.028;15.470;2023-07-20T09:37:40;5.38;;;3.00;;
44048;SDS011;29717;47.028;15.470;2023-07-20T09:40:07;6.40;;;3.03;;
44048;SDS011;29717;47.028;15.470;2023-07-20T09:42:35;3.30;;;2.88;;
44048;SDS011;29717;47.028;15.470;2023-07-20T09:45:01;3.58;;;3.28;;
44048;SDS011;29717;47.028;15.470;2023-07-20T09:47:29;3.88;;;3.17;;
44048;SDS011;29717;47.028;15.470;2023-07-20T09:49:58;4.85;;;3.03;;
44048;SDS011;29717;47.028;15.470;2023-07-20T09:52:26;3.22;;;2.95;;
44048;SDS011;29717;47.028;15.470;2023-07-20T09:54:53;3.97;;;2.88;;
44048;SDS011;29717;47.028;15.470;2023-07-20T09:57:21;6.10;;;3.35;;
44048;SDS011;29717;47.028;15.470;2023-07-20T09:59:47;4.22;;;2.95;;
44048;SDS011;29717;47.028;15.470;2023-07-20T10:02:17;3.22;;;2.92;;
44048;SDS011;29717;47.028;15.470;2023-07-20T10:04:47;4.45;;;3.20;;
44048;SDS011;29717;47.028;15.470;2023-07-20T10:07:15;3.97;;;2.85;;
44048;SDS011;29717;47.028;15.470;2023-07-20T10:09:43;3.40;;;3.10;;
44048;SDS011;29717;47.028;15.470;2023-07-20T10:12:11;5.00;;;3.03;;
44048;SDS011;29717;47.028;15.470;2023-07-20T10:14:38;3.35;;;2.92;;
44048;SDS011;29717;47.028;15.470;2023-07-20T10:17:07;6.28;;;2.92;;
44048;SDS011;29717;47.028;15.470;2023-07-20T10:19:38;4.15;;;3.30;;
44048;SDS011;29717;47.028;15.470;2023-07-20T10:22:12;4.95;;;3.20;;
44048;SDS011;29717;47.028;15.470;2023-07-20T10:24:39;5.10;;;3.10;;
44048;SDS011;29717;47.028;15.470;2023-07-20T10:27:06;7.00;;;3.13;;
44048;SDS011;29717;47.028;15.470;2023-07-20T10:29:32;4.20;;;3.05;;
44048;SDS011;29717;47.028;15.470;2023-07-20T10:32:00;4.85;;;2.97;;
44048;SDS011;29717;47.028;15.470;2023-07-20T10:34:27;5.00;;;2.50;;
44048;SDS011;29717;47.028;15.470;2023-07-20T10:36:54;6.43;;;3.13;;
44048;SDS011;29717;47.028;15.470;2023-07-20T10:39:25;4.75;;;2.80;;
44048;SDS011;29717;47.028;15.470;2023-07-20T10:41:59;2.85;;;2.55;;
44048;SDS011;29717;47.028;15.470;2023-07-20T10:44:26;3.83;;;2.90;;
44048;SDS011;29717;47.028;15.470;2023-07-20T10:46:58;5.70;;;2.80;;
44048;SDS011;29717;47.028;15.470;2023-07-20T10:49:25;6.20;;;2.97;;
44048;SDS011;29717;47.028;15.470;2023-07-20T10:51:56;3.30;;;2.95;;
44048;SDS011;29717;47.028;15.470;2023-07-20T10:57:23;3.35;;;2.55;;
44048;SDS011;29717;47.028;15.470;2023-07-20T10:59:50;6.43;;;2.90;;
44048;SDS011;29717;47.028;15.470;2023-07-20T11:02:17;3.67;;;2.83;;
44048;SDS011;29717;47.028;15.470;2023-07-20T11:04:45;3.45;;;2.85;;
44048;SDS011;29717;47.028;15.470;2023-07-20T11:07:14;5.95;;;2.55;;
44048;SDS011;29717;47.028;15.470;2023-07-20T11:09:41;2.50;;;2.30;;
44048;SDS011;29717;47.028;15.470;2023-07-20T11:12:09;2.30;;;2.10;;
44048;SDS011;29717;47.028;15.470;2023-07-20T11:14:41;2.85;;;2.53;;
44048;SDS011;29717;47.028;15.470;2023-07-20T11:17:11;4.45;;;2.22;;
44048;SDS011;29717;47.028;15.470;2023-07-20T11:19:38;3.05;;;2.28;;
44048;SDS011;29717;47.028;15.470;2023-07-20T11:22:05;5.25;;;2.50;;
44048;SDS011;29717;47.028;15.470;2023-07-20T11:24:34;2.67;;;2.42;;
44048;SDS011;29717;47.028;15.470;2023-07-20T11:27:01;3.05;;;2.63;;
44048;SDS011;29717;47.028;15.470;2023-07-20T11:29:28;3.33;;;2.80;;
44048;SDS011;29717;47.028;15.470;2023-07-20T11:31:56;3.25;;;2.50;;
44048;SDS011;29717;47.028;15.470;2023-07-20T11:34:23;3.03;;;2.65;;
44048;SDS011;29717;47.028;15.470;2023-07-20T11:36:51;3.38;;;2.80;;
44048;SDS011;29717;47.028;15.470;2023-07-20T11:39:18;2.88;;;2.53;;
44048;SDS011;29717;47.028;15.470;2023-07-20T11:41:46;2.83;;;2.58;;
44048;SDS011;29717;47.028;15.470;2023-07-20T11:44:13;3.10;;;2.80;;
44048;SDS011;29717;47.028;15.470;2023-07-20T11:46:41;5.65;;;3.20;;
44048;SDS011;29717;47.028;15.470;2023-07-20T11:49:09;2.85;;;2.55;;
44048;SDS011;29717;47.028;15.470;2023-07-20T11:51:35;4.75;;;2.70;;
44048;SDS011;29717;47.028;15.470;2023-07-20T11:54:03;6.88;;;2.78;;
44048;SDS011;29717;47.028;15.470;2023-07-20T11:56:30;6.03;;;3.65;;
44048;SDS011;29717;47.028;15.470;2023-07-20T11:58:57;5.70;;;3.72;;
44048;SDS011;29717;47.028;15.470;2023-07-20T12:01:26;5.45;;;3.72;;
44048;SDS011;29717;47.028;15.470;2023-07-20T12:03:55;4.07;;;3.38;;
44048;SDS011;29717;47.028;15.470;2023-07-20T12:06:24;4.93;;;3.42;;
44048;SDS011;29717;47.028;15.470;2023-07-20T12:08:53;4.78;;;4.00;;
44048;SDS011;29717;47.028;15.470;2023-07-20T12:11:30;5.13;;;2.85;;
44048;SDS011;29717;47.028;15.470;2023-07-20T12:13:57;7.07;;;3.20;;
44048;SDS011;29717;47.028;15.470;2023-07-20T12:16:26;5.43;;;3.00;;
44048;SDS011;29717;47.028;15.470;2023-07-20T12:18:58;5.15;;;2.60;;
44048;SDS011;29717;47.028;15.470;2023-07-20T12:21:26;4.63;;;2.90;;
44048;SDS011;29717;47.028;15.470;2023-07-20T12:23:55;3.38;;;3.03;;
44048;SDS011;29717;47.028;15.470;2023-07-20T12:26:22;3.03;;;2.58;;
44048;SDS011;29717;47.028;15.470;2023-07-20T12:28:49;4.10;;;3.10;;
44048;SDS011;29717;47.028;15.470;2023-07-20T12:31:16;3.78;;;2.95;;
44048;SDS011;29717;47.028;15.470;2023-07-20T12:33:43;8.48;;;4.63;;
44048;SDS011;29717;47.028;15.470;2023-07-20T12:36:09;7.38;;;5.82;;
44048;SDS011;29717;47.028;15.470;2023-07-20T12:38:37;4.82;;;3.60;;
44048;SDS011;29717;47.028;15.470;2023-07-20T12:41:04;4.30;;;2.85;;
44048;SDS011;29717;47.028;15.470;2023-07-20T12:43:31;3.55;;;2.50;;
44048;SDS011;29717;47.028;15.470;2023-07-20T12:45:58;4.45;;;2.60;;
44048;SDS011;29717;47.028;15.470;2023-07-20T12:48:25;3.47;;;2.70;;
44048;SDS011;29717;47.028;15.470;2023-07-20T12:50:52;2.92;;;2.63;;
44048;SDS011;29717;47.028;15.470;2023-07-20T12:53:18;3.60;;;2.47;;
44048;SDS011;29717;47.028;15.470;2023-07-20T12:55:46;6.82;;;2.70;;
44048;SDS011;29717;47.028;15.470;2023-07-20T12:58:13;4.10;;;2.92;;
44048;SDS011;29717;47.028;15.470;2023-07-20T13:00:40;8.90;;;2.90;;
44048;SDS011;29717;47.028;15.470;2023-07-20T13:03:07;5.65;;;3.13;;
44048;SDS011;29717;47.028;15.470;2023-07-20T13:05:34;6.90;;;2.67;;
44048;SDS011;29717;47.028;15.470;2023-07-20T13:08:01;8.55;;;3.00;;
44048;SDS011;29717;47.028;15.470;2023-07-20T13:10:27;8.10;;;2.88;;
44048;SDS011;29717;47.028;15.470;2023-07-20T13:12:56;5.10;;;2.38;;
44048;SDS011;29717;47.028;15.470;2023-07-20T13:15:24;8.48;;;2.42;;
44048;SDS011;29717;47.028;15.470;2023-07-20T13:17:50;1.92;;;1.65;;
44048;SDS011;29717;47.028;15.470;2023-07-20T13:20:17;3.60;;;2.13;;
44048;SDS011;29717;47.028;15.470;2023-07-20T13:22:44;4.55;;;2.45;;
44048;SDS011;29717;47.028;15.470;2023-07-20T13:25:10;3.70;;;2.08;;
44048;SDS011;29717;47.028;15.470;2023-07-20T13:27:37;2.00;;;1.90;;
44048;SDS011;29717;47.028;15.470;2023-07-20T13:30:06;5.28;;;2.50;;
44048;SDS011;29717;47.028;15.470;2023-07-20T13:32:35;2.17;;;1.98;;
44048;SDS011;29717;47.028;15.470;2023-07-20T13:35:01;5.45;;;2.60;;
44048;SDS011;29717;47.028;15.470;2023-07-20T13:37:28;2.20;;;1.98;;
44048;SDS011;29717;47.028;15.470;2023-07-20T13:39:55;3.70;;;1.83;;
44048;SDS011;29717;47.028;15.470;2023-07-20T13:42:21;9.10;;;3.28;;
44048;SDS011;29717;47.028;15.470;2023-07-20T13:44:48;6.15;;;2.70;;
44048;SDS011;29717;47.028;15.470;2023-07-20T13:47:16;5.95;;;2.50;;
44048;SDS011;29717;47.028;15.470;2023-07-20T13:49:43;4.82;;;2.03;;
44048;SDS011;29717;47.028;15.470;2023-07-20T13:52:10;2.40;;;2.20;;
44048;SDS011;29717;47.028;15.470;2023-07-20T13:54:37;3.42;;;2.28;;
44048;SDS011;29717;47.028;15.470;2023-07-20T13:57:03;2.95;;;2.30;;
44048;SDS011;29717;47.028;15.470;2023-07-20T13:59:30;4.05;;;2.58;;
44048;SDS011;29717;47.028;15.470;2023-07-20T14:01:57;4.10;;;2.67;;
44048;SDS011;29717;47.028;15.470;2023-07-20T14:04:25;3.83;;;2.13;;
44048;SDS011;29717;47.028;15.470;2023-07-20T14:06:51;3.05;;;2.40;;
44048;SDS011;29717;47.028;15.470;2023-07-20T14:09:18;2.88;;;2.33;;
44048;SDS011;29717;47.028;15.470;2023-07-20T14:11:45;3.25;;;2.30;;
44048;SDS011;29717;47.028;15.470;2023-07-20T14:14:11;2.78;;;2.50;;
44048;SDS011;29717;47.028;15.470;2023-07-20T14:16:38;3.40;;;2.72;;
44048;SDS011;29717;47.028;15.470;2023-07-20T14:19:05;2.80;;;2.22;;
44048;SDS011;29717;47.028;15.470;2023-07-20T14:21:33;2.90;;;2.50;;
44048;SDS011;29717;47.028;15.470;2023-07-20T14:23:59;4.22;;;2.63;;
44048;SDS011;29717;47.028;15.470;2023-07-20T14:26:27;3.13;;;2.47;;
44048;SDS011;29717;47.028;15.470;2023-07-20T14:28:54;2.67;;;2.30;;
44048;SDS011;29717;47.028;15.470;2023-07-20T14:31:20;3.22;;;2.78;;
44048;SDS011;29717;47.028;15.470;2023-07-20T14:33:47;3.83;;;2.72;;
44048;SDS011;29717;47.028;15.470;2023-07-20T14:36:14;3.63;;;2.45;;
44048;SDS011;29717;47.028;15.470;2023-07-20T14:38:42;3.20;;;2.85;;
44048;SDS011;29717;47.028;15.470;2023-07-20T14:41:08;4.15;;;2.97;;